»·PEaware :: N112LW KVBG-KLGB

N112LW :: KVBG-KLGB

FLIGHT INFORMATION

Flight Status: Arrived
Operator: Privately registered:
United States
More flights under this callsign
Pilot: Lee W. (44)
Aircraft: PIPER PA-24 COMMANCHE
(PA24)
More flights by this aircraft type
Origin: KVBG Vandenberg AFB
United States
Destination: KLGB Long Beach
United States
More flights between these airports :: More routes between these airports
Route: +RZS V186 ADAMM V394 SLI
File this flight plan on PilotEdge
Remarks:
Altitude:
(Current/Filed)
7,000ft
Speed:
(Current/Filed)
160kts
Departed: 07-Dec-11 09:20 PM
Arrived: 07-Dec-11 10:49 PM
Distance/Time
Traveled:
133nm/1:29
Distance/Time
To Go:
Arrived

Flight Plot

Page will automatically refresh every two minutes.


Map Options




Map Legend


Flown Route
Filed Route
Departure Airport
Arrival Airport
Navaid (VOR, NDB)
Fix

Horizontal Profiles

Position Reports

Time Latitude Longitude Heading Altitude Ground
Speed
07-Dec-11 21:15 34.726728 -120.566030 132 371ft 0kts
07-Dec-11 21:16 34.724643 -120.565111 178 371ft 20kts
07-Dec-11 21:17 34.723366 -120.568345 318 371ft 42kts
07-Dec-11 21:18 34.747787 -120.577697 47 1096ft 137kts
07-Dec-11 21:19 34.730635 -120.539662 140 2003ft 152kts
07-Dec-11 21:20 34.704458 -120.499168 121 2905ft 153kts
07-Dec-11 21:21 34.683428 -120.454021 118 3809ft 152kts
07-Dec-11 21:22 34.664012 -120.410037 118 4688ft 150kts
07-Dec-11 21:23 34.644472 -120.366069 118 5578ft 148kts
07-Dec-11 21:24 34.625305 -120.322942 118 6466ft 145kts
07-Dec-11 21:25 34.605939 -120.279408 118 7019ft 161kts
07-Dec-11 21:26 34.604232 -120.222747 94 7017ft 175kts
07-Dec-11 21:27 34.600443 -120.164318 94 7014ft 169kts
07-Dec-11 21:28 34.596896 -120.109894 95 7016ft 159kts
07-Dec-11 21:29 34.587721 -120.057936 105 7016ft 157kts
07-Dec-11 21:30 34.575550 -120.009690 107 7016ft 157kts
07-Dec-11 21:31 34.565262 -119.971564 107 7016ft 157kts
07-Dec-11 21:32 34.551422 -119.921229 108 7016ft 157kts
07-Dec-11 21:33 34.537442 -119.870771 107 6987ft 158kts
07-Dec-11 21:34 34.523292 -119.819775 108 6989ft 159kts
07-Dec-11 21:35 34.508926 -119.768561 114 6987ft 161kts
07-Dec-11 21:36 34.484255 -119.723591 124 6989ft 160kts
07-Dec-11 21:37 34.459523 -119.678217 124 6989ft 161kts
07-Dec-11 21:38 34.434896 -119.632899 124 6987ft 160kts
07-Dec-11 21:39 34.410384 -119.587806 124 6987ft 160kts
07-Dec-11 21:40 34.385864 -119.542746 124 6987ft 160kts
07-Dec-11 21:41 34.361598 -119.498205 124 6987ft 160kts
07-Dec-11 21:42 34.337175 -119.453457 124 6988ft 160kts
07-Dec-11 21:43 34.315991 -119.411531 98 6970ft 162kts
07-Dec-11 21:44 34.318929 -119.378613 83 6977ft 164kts
07-Dec-11 21:46 34.327222 -119.278319 83 6992ft 167kts
07-Dec-11 21:48 34.335104 -119.174735 83 6990ft 169kts
07-Dec-11 21:49 34.339323 -119.118588 83 6997ft 169kts
07-Dec-11 21:50 34.343567 -119.062431 86 7003ft 166kts
07-Dec-11 21:51 34.347569 -119.007900 86 7002ft 162kts
07-Dec-11 21:52 34.351504 -118.954221 86 7000ft 159kts
07-Dec-11 21:53 34.355374 -118.901323 86 6993ft 157kts
07-Dec-11 21:54 34.347231 -118.851395 114 7003ft 154kts
07-Dec-11 21:55 34.330704 -118.804033 113 7008ft 154kts
07-Dec-11 21:56 34.314354 -118.756335 113 7004ft 155kts
07-Dec-11 21:57 34.297933 -118.708277 113 7003ft 155kts
07-Dec-11 21:59 34.262804 -118.605760 111 6991ft 165kts
07-Dec-11 22:00 34.249963 -118.568301 110 6992ft 166kts
07-Dec-11 22:01 34.233308 -118.519732 109 6991ft 165kts
07-Dec-11 22:02 34.216551 -118.468434 106 6991ft 164kts
07-Dec-11 22:03 34.202951 -118.423677 106 6990ft 163kts
07-Dec-11 22:04 34.189938 -118.381197 107 7021ft 162kts
07-Dec-11 22:05 34.175574 -118.334165 108 7021ft 163kts
07-Dec-11 22:06 34.161060 -118.286654 108 6991ft 163kts
07-Dec-11 22:07 34.147108 -118.241039 108 6991ft 162kts
07-Dec-11 22:08 34.133186 -118.195580 109 6992ft 162kts
07-Dec-11 22:09 34.120183 -118.153179 109 6991ft 162kts
07-Dec-11 22:10 34.107380 -118.111345 110 7001ft 160kts
07-Dec-11 22:11 34.094502 -118.069494 111 6997ft 163kts
07-Dec-11 22:12 34.082675 -118.031029 112 6998ft 161kts
07-Dec-11 22:13 34.070300 -117.991014 112 6995ft 156kts
07-Dec-11 22:14 34.059924 -117.957439 112 6997ft 159kts
07-Dec-11 22:15 34.047640 -117.917867 110 6998ft 163kts
07-Dec-11 22:16 34.035809 -117.878782 108 6996ft 165kts
07-Dec-11 22:17 34.026203 -117.846829 108 7006ft 164kts
07-Dec-11 22:18 34.009628 -117.819898 171 6762ft 157kts
07-Dec-11 22:19 33.982994 -117.831713 204 6154ft 131kts
07-Dec-11 22:20 33.957461 -117.844942 202 5522ft 124kts
07-Dec-11 22:21 33.933882 -117.856662 202 4919ft 122kts
07-Dec-11 22:22 33.912044 -117.867300 201 4413ft 111kts
07-Dec-11 22:23 33.889423 -117.878367 201 3986ft 104kts
07-Dec-11 22:24 33.870731 -117.887519 201 3982ft 88kts
07-Dec-11 22:25 33.852325 -117.896575 201 3989ft 90kts
07-Dec-11 22:26 33.831588 -117.906791 201 3987ft 92kts
07-Dec-11 22:27 33.810567 -117.917142 201 3986ft 93kts
07-Dec-11 22:28 33.789695 -117.927427 202 3986ft 93kts
07-Dec-11 22:29 33.778459 -117.948926 243 3987ft 92kts
07-Dec-11 22:30 33.769510 -117.971148 243 3987ft 93kts
07-Dec-11 22:31 33.760064 -117.993760 228 3993ft 92kts
07-Dec-11 22:32 33.736716 -118.002725 193 3361ft 121kts
07-Dec-11 22:33 33.710486 -118.005557 165 2393ft 115kts
07-Dec-11 22:34 33.687885 -117.999985 191 1603ft 96kts
07-Dec-11 22:35 33.684898 -118.014174 332 1580ft 58kts
07-Dec-11 22:36 33.697710 -118.020560 334 1603ft 75kts
07-Dec-11 22:37 33.710064 -118.029039 325 1596ft 74kts
07-Dec-11 22:38 33.722111 -118.039737 320 1602ft 81kts
07-Dec-11 22:39 33.735502 -118.053622 317 1598ft 86kts
07-Dec-11 22:40 33.749556 -118.069541 315 1597ft 87kts
07-Dec-11 22:41 33.760883 -118.082865 315 1455ft 98kts
07-Dec-11 22:42 33.772934 -118.097264 314 1143ft 105kts
07-Dec-11 22:43 33.786908 -118.114081 314 764ft 106kts
07-Dec-11 22:44 33.800989 -118.131074 314 381ft 106kts
07-Dec-11 22:45 33.812714 -118.145231 315 78ft 96kts
07-Dec-11 22:46 33.818564 -118.153202 266 62ft 0kts
07-Dec-11 22:47 33.818535 -118.154079 272 62ft 13kts
07-Dec-11 22:48 33.817949 -118.156754 240 62ft 0kts
07-Dec-11 22:49 33.817949 -118.156754 240 62ft 0kts

Navigation Log

Ident Type
Flight plan parsing failed, navigation log unavailable